createdAt,value
2023-11-09T00:01:27.980Z,93626.03
2023-11-09T00:06:35.162Z,93622.13
2023-11-09T00:11:42.123Z,93622.89
2023-11-09T00:16:49.108Z,93616.16
2023-11-09T00:21:56.348Z,93609.47
2023-11-09T00:27:03.232Z,93603.30
2023-11-09T00:32:10.426Z,93599.16
2023-11-09T00:37:18.074Z,93601.73
2023-11-09T00:42:26.034Z,93597.00
2023-11-09T00:47:33.201Z,93591.39
2023-11-09T00:52:42.102Z,93578.75
2023-11-09T00:57:49.541Z,93571.22
2023-11-09T01:02:56.964Z,93565.55
2023-11-09T01:08:04.150Z,93561.02
2023-11-09T01:13:11.404Z,93555.56
2023-11-09T01:18:18.837Z,93557.39
2023-11-09T01:23:26.077Z,93547.67
2023-11-09T01:28:33.291Z,93527.73
2023-11-09T01:33:40.759Z,93531.20
2023-11-09T01:38:47.862Z,93518.18
2023-11-09T01:44:03.139Z,93518.12
2023-11-09T01:49:12.319Z,93517.64
2023-11-09T01:54:23.022Z,93509.84
2023-11-09T01:59:34.052Z,93508.88
2023-11-09T02:04:41.248Z,93515.86
2023-11-09T02:09:52.216Z,93509.25
2023-11-09T02:14:59.213Z,93502.65
2023-11-09T02:20:07.879Z,93493.30
2023-11-09T02:25:15.454Z,93490.27
2023-11-09T02:30:22.771Z,93487.25
2023-11-09T02:35:29.774Z,93484.28
2023-11-09T02:40:37.295Z,93475.05
2023-11-09T02:45:44.193Z,93479.16
2023-11-09T02:50:51.016Z,93461.52
2023-11-09T02:55:58.157Z,93457.97
2023-11-09T03:01:05.437Z,93453.79
2023-11-09T03:06:14.421Z,93456.78
2023-11-09T03:11:22.897Z,93451.30
2023-11-09T03:16:30.540Z,93451.63
2023-11-09T03:21:38.524Z,93445.65
2023-11-09T03:26:45.732Z,93438.41
2023-11-09T03:31:52.938Z,93432.66
2023-11-09T03:36:59.824Z,93415.45
2023-11-09T03:42:07.029Z,93411.59
2023-11-09T03:47:13.781Z,93414.54
2023-11-09T03:52:30.702Z,93401.78
2023-11-09T03:57:37.948Z,93403.82
2023-11-09T04:02:46.537Z,93399.39
2023-11-09T04:07:53.649Z,93393.92
2023-11-09T04:13:00.618Z,93391.18
2023-11-09T04:18:07.753Z,93389.70
2023-11-09T04:23:14.682Z,93375.75
2023-11-09T04:28:22.032Z,93371.95
2023-11-09T04:33:29.529Z,93372.05
2023-11-09T04:38:40.993Z,93369.20
2023-11-09T04:43:48.222Z,93372.04
2023-11-09T04:48:57.335Z,93369.53
2023-11-09T04:54:12.095Z,93354.09
2023-11-09T04:59:28.304Z,93342.39
2023-11-09T05:04:53.243Z,93345.47
2023-11-09T05:10:02.231Z,93340.05
2023-11-09T05:15:34.186Z,93344.64
2023-11-09T05:20:42.894Z,93342.20
2023-11-09T05:25:51.856Z,93335.62
2023-11-09T05:30:59.927Z,93332.97
2023-11-09T05:36:10.154Z,93343.34
2023-11-09T05:41:19.130Z,93338.31
2023-11-09T05:46:26.476Z,93332.65
2023-11-09T05:51:34.196Z,93330.94
2023-11-09T05:56:42.772Z,93330.97
2023-11-09T06:01:50.057Z,93331.84
2023-11-09T06:06:57.542Z,93322.39
2023-11-09T06:12:05.972Z,93317.86
2023-11-09T06:17:16.074Z,93313.52
2023-11-09T06:22:25.325Z,93312.17
2023-11-09T06:27:33.305Z,93319.16
2023-11-09T06:32:41.953Z,93329.72
2023-11-09T06:37:49.061Z,93318.63
2023-11-09T06:42:56.813Z,93317.50
2023-11-09T06:48:04.220Z,93310.44
2023-11-09T06:53:12.277Z,93310.84
2023-11-09T06:58:19.305Z,93300.84
2023-11-09T07:03:26.869Z,93304.17
2023-11-09T07:08:34.193Z,93292.55
2023-11-09T07:13:41.632Z,93136.58
2023-11-09T07:18:50.188Z,93287.04
2023-11-09T07:23:58.775Z,93282.11
2023-11-09T07:29:05.740Z,93287.03
2023-11-09T07:34:12.627Z,93289.20
2023-11-09T07:39:19.815Z,93278.20
2023-11-09T07:44:29.267Z,93284.92
2023-11-09T07:49:37.152Z,93274.78
2023-11-09T07:54:45.638Z,93277.05
2023-11-09T07:59:52.770Z,93275.09
2023-11-09T08:05:00.640Z,93267.67
2023-11-09T08:10:08.848Z,93264.75
2023-11-09T08:15:17.830Z,93254.89
2023-11-09T08:20:25.315Z,93254.18
2023-11-09T08:25:32.412Z,93256.29
2023-11-09T08:30:41.078Z,93256.78
2023-11-09T08:35:49.715Z,93275.28
2023-11-09T08:40:57.476Z,93260.94
2023-11-09T08:46:04.793Z,93252.83
2023-11-09T08:51:13.383Z,93244.09
2023-11-09T08:56:21.717Z,93240.27
2023-11-09T09:01:30.042Z,93241.05
2023-11-09T09:06:37.255Z,93233.13
2023-11-09T09:11:47.786Z,93229.59
2023-11-09T09:16:54.823Z,93223.11
2023-11-09T09:22:01.731Z,93232.09
2023-11-09T09:27:10.681Z,93227.41
2023-11-09T09:32:17.867Z,93222.55
2023-11-09T09:37:26.059Z,93228.22
2023-11-09T09:42:33.245Z,93219.95
2023-11-09T09:47:40.777Z,93216.55
2023-11-09T09:52:48.898Z,93208.75
2023-11-09T09:57:56.976Z,93203.04
2023-11-09T10:03:08.483Z,93203.34
2023-11-09T10:08:16.856Z,93192.88
2023-11-09T10:13:25.864Z,93190.48
2023-11-09T10:18:35.703Z,93180.94
2023-11-09T10:23:43.551Z,93176.88
2023-11-09T10:28:56.369Z,93169.31
2023-11-09T10:34:06.218Z,93166.11
2023-11-09T10:39:24.992Z,93157.44
2023-11-09T10:44:34.740Z,93159.28
2023-11-09T10:49:45.390Z,93149.22
2023-11-09T10:54:56.609Z,93136.17
2023-11-09T11:00:04.770Z,93125.44
2023-11-09T11:05:11.919Z,93125.39
2023-11-09T11:10:21.173Z,93110.44
2023-11-09T11:15:32.797Z,93113.92
2023-11-09T11:20:56.556Z,93102.31
2023-11-09T11:26:10.410Z,93100.19
2023-11-09T11:31:17.183Z,93104.91
2023-11-09T11:36:30.326Z,93104.39
2023-11-09T11:41:37.905Z,92960.77
2023-11-09T11:46:45.267Z,93092.79
2023-11-09T11:51:55.331Z,93078.81
2023-11-09T11:57:05.721Z,93074.84
2023-11-09T12:02:14.229Z,93069.81
2023-11-09T12:07:22.557Z,93060.33
2023-11-09T12:12:31.339Z,93056.77
2023-11-09T12:17:40.115Z,93060.77
2023-11-09T12:22:48.656Z,93054.20
2023-11-09T12:27:55.801Z,93048.70
2023-11-09T12:33:04.134Z,93037.38
2023-11-09T12:38:12.608Z,93036.59
2023-11-09T12:43:19.571Z,93023.92
2023-11-09T12:48:28.633Z,93014.70
2023-11-09T12:53:37.414Z,92999.13
2023-11-09T12:58:44.677Z,92995.67
2023-11-09T13:03:56.420Z,92997.25
2023-11-09T13:09:20.860Z,92983.01
2023-11-09T13:14:28.613Z,92971.95
2023-11-09T13:19:35.563Z,92969.05
2023-11-09T13:24:44.452Z,92973.52
2023-11-09T13:29:52.012Z,92966.67
2023-11-09T13:35:16.787Z,92965.84
2023-11-09T13:40:29.613Z,92961.88
2023-11-09T13:45:37.428Z,92951.31
2023-11-09T13:50:46.197Z,92948.92
2023-11-09T13:56:03.593Z,92939.92
2023-11-09T14:01:10.375Z,92950.81
2023-11-09T14:06:18.931Z,92941.58
2023-11-09T14:11:27.003Z,92936.80
2023-11-09T14:16:38.910Z,92949.76
2023-11-09T14:21:48.008Z,92944.77
2023-11-09T14:26:56.341Z,92940.53
2023-11-09T14:32:03.673Z,92938.91
2023-11-09T14:37:12.404Z,92929.17
2023-11-09T14:42:19.324Z,92931.05
2023-11-09T14:47:27.160Z,92926.31
2023-11-09T14:52:44.714Z,92926.58
2023-11-09T14:57:53.869Z,92927.64
2023-11-09T15:03:01.734Z,92917.63
2023-11-09T15:08:10.636Z,92930.81
2023-11-09T15:13:18.981Z,92927.39
2023-11-09T15:18:26.986Z,92931.88
2023-11-09T15:23:34.748Z,92930.80
2023-11-09T15:28:43.848Z,92929.22
2023-11-09T15:33:50.967Z,92920.80
2023-11-09T15:38:59.491Z,92924.16
2023-11-09T15:44:09.846Z,92927.89
2023-11-09T15:49:19.131Z,92925.02
2023-11-09T15:54:27.794Z,92916.27
2023-11-09T15:59:36.307Z,92917.09
2023-11-09T16:04:43.517Z,92913.40
2023-11-09T16:10:00.128Z,92916.31
2023-11-09T16:15:00.545Z,92903.62
2023-11-09T16:20:09.904Z,92917.09
2023-11-09T16:25:22.110Z,92909.20
2023-11-09T16:30:30.643Z,92912.78
2023-11-09T16:35:37.947Z,92903.90
2023-11-09T16:40:45.559Z,92898.34
2023-11-09T16:45:52.657Z,92906.53
2023-11-09T16:50:59.890Z,92895.72
2023-11-09T16:56:10.266Z,92897.79
2023-11-09T17:01:18.876Z,92896.98
2023-11-09T17:06:25.981Z,92908.07
2023-11-09T17:11:33.508Z,92905.41
2023-11-09T17:16:40.710Z,92910.67
2023-11-09T17:21:48.219Z,92910.90
2023-11-09T17:26:55.161Z,92906.16
2023-11-09T17:32:02.083Z,92895.32
2023-11-09T17:37:09.753Z,92899.22
2023-11-09T17:42:17.152Z,92901.38
2023-11-09T17:47:24.066Z,92893.69
2023-11-09T17:52:31.377Z,92896.41
2023-11-09T17:57:39.994Z,92894.31
2023-11-09T18:02:48.086Z,92895.32
2023-11-09T18:07:55.412Z,92903.69
2023-11-09T18:13:02.426Z,92901.73
2023-11-09T18:18:09.771Z,92883.89
2023-11-09T18:23:18.086Z,92890.41
2023-11-09T18:28:25.185Z,92886.02
2023-11-09T18:33:32.044Z,92870.94
2023-11-09T18:38:39.504Z,92857.58
2023-11-09T18:43:47.131Z,92854.64
2023-11-09T18:48:54.206Z,92865.20
2023-11-09T18:54:01.236Z,92844.69
2023-11-09T18:59:08.316Z,92840.34
2023-11-09T19:09:25.337Z,92848.25
2023-11-09T19:14:33.675Z,92852.78
2023-11-09T19:19:40.708Z,92847.72
2023-11-09T19:24:48.346Z,92848.57
2023-11-09T19:29:55.495Z,92832.90
2023-11-09T19:35:02.333Z,92830.95
2023-11-09T19:40:11.028Z,92854.16
2023-11-09T19:45:19.612Z,92837.90
2023-11-09T19:50:27.491Z,92837.45
2023-11-09T19:55:34.437Z,92840.85
2023-11-09T20:00:42.240Z,92839.82
2023-11-09T20:05:49.263Z,92830.34
2023-11-09T20:10:56.228Z,92839.55
2023-11-09T20:16:03.392Z,92854.81
2023-11-09T20:21:13.548Z,92839.25
2023-11-09T20:26:20.987Z,92837.95
2023-11-09T20:31:27.829Z,92841.38
2023-11-09T20:36:35.002Z,92823.77
2023-11-09T20:41:44.903Z,92828.50
2023-11-09T20:46:52.028Z,92827.42
2023-11-09T20:52:00.506Z,92811.38
2023-11-09T20:57:07.747Z,92813.76
2023-11-09T21:02:17.529Z,92807.93
2023-11-09T21:07:24.532Z,92824.55
2023-11-09T21:12:32.738Z,92812.17
2023-11-09T21:17:41.638Z,92821.11
2023-11-09T21:22:49.028Z,92810.05
2023-11-09T21:27:55.872Z,92811.11
2023-11-09T21:33:11.905Z,92806.89
2023-11-09T21:38:17.933Z,92798.98
2023-11-09T21:43:25.366Z,92802.69
2023-11-09T21:48:32.497Z,92803.20
2023-11-09T21:53:42.618Z,92794.77
2023-11-09T21:58:50.223Z,92794.25
2023-11-09T22:03:57.490Z,92795.27
2023-11-09T22:09:06.656Z,92792.94
2023-11-09T22:14:14.377Z,92785.83
2023-11-09T22:19:22.368Z,92782.91
2023-11-09T22:24:30.428Z,92792.61
2023-11-09T22:29:37.309Z,92793.28
2023-11-09T22:34:44.908Z,92796.34
2023-11-09T22:39:52.595Z,92795.66
2023-11-09T22:44:59.731Z,92790.25
2023-11-09T22:50:08.968Z,92790.49
2023-11-09T22:55:15.923Z,92795.25
2023-11-09T23:00:27.719Z,92797.33
2023-11-09T23:05:34.844Z,92792.05
2023-11-09T23:10:42.439Z,92792.96
2023-11-09T23:15:49.486Z,92789.69
2023-11-09T23:20:56.482Z,92779.46
2023-11-09T23:26:04.717Z,92780.79
2023-11-09T23:31:15.488Z,92780.11
2023-11-09T23:36:22.382Z,92787.84
2023-11-09T23:41:29.425Z,92787.98
2023-11-09T23:46:36.371Z,92779.02
2023-11-09T23:51:43.986Z,92772.98
2023-11-09T23:56:51.145Z,92772.46
